sensor_id;sensor_type;location;lat;lon;timestamp;temperature;humidity
48686;DHT22;34485;51.536;3.816;2022-11-06T00:01:59;11.10;99.90
48686;DHT22;34485;51.536;3.816;2022-11-06T00:04:28;11.10;99.90
48686;DHT22;34485;51.536;3.816;2022-11-06T00:06:54;11.10;99.90
48686;DHT22;34485;51.536;3.816;2022-11-06T00:09:20;11.00;99.90
48686;DHT22;34485;51.536;3.816;2022-11-06T00:11:47;11.10;99.90
48686;DHT22;34485;51.536;3.816;2022-11-06T00:14:13;11.00;99.90
48686;DHT22;34485;51.536;3.816;2022-11-06T00:16:40;11.00;99.90
48686;DHT22;34485;51.536;3.816;2022-11-06T00:19:06;11.00;99.90
48686;DHT22;34485;51.536;3.816;2022-11-06T00:21:32;11.00;99.90
48686;DHT22;34485;51.536;3.816;2022-11-06T00:23:59;11.00;99.90
48686;DHT22;34485;51.536;3.816;2022-11-06T00:26:27;10.90;99.90
48686;DHT22;34485;51.536;3.816;2022-11-06T00:28:53;10.90;99.90
48686;DHT22;34485;51.536;3.816;2022-11-06T00:31:23;10.90;99.90
48686;DHT22;34485;51.536;3.816;2022-11-06T00:33:50;10.90;99.90
48686;DHT22;34485;51.536;3.816;2022-11-06T00:36:19;10.90;99.90
48686;DHT22;34485;51.536;3.816;2022-11-06T00:38:44;10.90;99.90
48686;DHT22;34485;51.536;3.816;2022-11-06T00:41:13;10.90;99.90
48686;DHT22;34485;51.536;3.816;2022-11-06T00:43:39;10.90;99.90
48686;DHT22;34485;51.536;3.816;2022-11-06T00:46:06;11.00;99.90
48686;DHT22;34485;51.536;3.816;2022-11-06T00:48:32;11.00;99.90
48686;DHT22;34485;51.536;3.816;2022-11-06T00:51:07;11.00;99.90
48686;DHT22;34485;51.536;3.816;2022-11-06T00:53:33;11.00;99.90
48686;DHT22;34485;51.536;3.816;2022-11-06T00:56:16;11.00;99.90
48686;DHT22;34485;51.536;3.816;2022-11-06T00:58:43;11.00;99.90
48686;DHT22;34485;51.536;3.816;2022-11-06T01:01:14;11.00;99.90
48686;DHT22;34485;51.536;3.816;2022-11-06T01:03:42;11.00;99.90
48686;DHT22;34485;51.536;3.816;2022-11-06T01:06:10;11.00;99.90
48686;DHT22;34485;51.536;3.816;2022-11-06T01:08:37;11.10;99.90
48686;DHT22;34485;51.536;3.816;2022-11-06T01:11:13;11.10;99.90
48686;DHT22;34485;51.536;3.816;2022-11-06T01:13:40;11.10;99.90
48686;DHT22;34485;51.536;3.816;2022-11-06T01:16:09;11.10;99.90
48686;DHT22;34485;51.536;3.816;2022-11-06T01:18:35;11.10;99.90
48686;DHT22;34485;51.536;3.816;2022-11-06T01:21:07;11.00;99.90
48686;DHT22;34485;51.536;3.816;2022-11-06T01:23:33;11.10;99.90
48686;DHT22;34485;51.536;3.816;2022-11-06T01:26:01;11.10;99.90
48686;DHT22;34485;51.536;3.816;2022-11-06T01:28:28;11.10;99.90
48686;DHT22;34485;51.536;3.816;2022-11-06T01:30:54;11.10;99.90
48686;DHT22;34485;51.536;3.816;2022-11-06T01:33:20;11.10;99.90
48686;DHT22;34485;51.536;3.816;2022-11-06T01:35:47;11.10;99.90
48686;DHT22;34485;51.536;3.816;2022-11-06T01:38:13;11.10;99.90
48686;DHT22;34485;51.536;3.816;2022-11-06T01:40:43;11.10;99.90
48686;DHT22;34485;51.536;3.816;2022-11-06T01:43:17;11.10;99.90
48686;DHT22;34485;51.536;3.816;2022-11-06T01:45:45;11.10;99.90
48686;DHT22;34485;51.536;3.816;2022-11-06T01:50:40;11.20;99.90
48686;DHT22;34485;51.536;3.816;2022-11-06T01:53:06;11.20;99.90
48686;DHT22;34485;51.536;3.816;2022-11-06T01:55:37;11.20;99.90
48686;DHT22;34485;51.536;3.816;2022-11-06T01:58:05;11.20;99.90
48686;DHT22;34485;51.536;3.816;2022-11-06T02:00:32;11.20;99.90
48686;DHT22;34485;51.536;3.816;2022-11-06T02:02:57;11.20;99.90
48686;DHT22;34485;51.536;3.816;2022-11-06T02:05:24;11.10;99.90
48686;DHT22;34485;51.536;3.816;2022-11-06T02:07:50;10.90;99.90
48686;DHT22;34485;51.536;3.816;2022-11-06T02:10:16;10.90;99.90
48686;DHT22;34485;51.536;3.816;2022-11-06T02:13:10;10.80;99.90
48686;DHT22;34485;51.536;3.816;2022-11-06T02:15:51;10.70;99.90
48686;DHT22;34485;51.536;3.816;2022-11-06T02:21:42;10.60;99.90
48686;DHT22;34485;51.536;3.816;2022-11-06T02:27:10;10.70;99.90
48686;DHT22;34485;51.536;3.816;2022-11-06T02:29:50;10.70;99.90
48686;DHT22;34485;51.536;3.816;2022-11-06T02:32:43;10.60;99.90
48686;DHT22;34485;51.536;3.816;2022-11-06T02:35:34;10.70;99.90
48686;DHT22;34485;51.536;3.816;2022-11-06T02:38:11;10.70;99.90
48686;DHT22;34485;51.536;3.816;2022-11-06T02:40:41;10.70;99.90
48686;DHT22;34485;51.536;3.816;2022-11-06T02:43:08;10.70;99.90
48686;DHT22;34485;51.536;3.816;2022-11-06T02:45:49;10.70;99.90
48686;DHT22;34485;51.536;3.816;2022-11-06T02:48:21;10.70;99.90
48686;DHT22;34485;51.536;3.816;2022-11-06T02:50:49;10.70;99.90
48686;DHT22;34485;51.536;3.816;2022-11-06T02:53:19;10.70;99.90
48686;DHT22;34485;51.536;3.816;2022-11-06T02:55:49;10.80;99.90
48686;DHT22;34485;51.536;3.816;2022-11-06T03:00:49;10.80;99.90
48686;DHT22;34485;51.536;3.816;2022-11-06T03:03:20;10.80;99.90
48686;DHT22;34485;51.536;3.816;2022-11-06T03:05:50;10.80;99.90
48686;DHT22;34485;51.536;3.816;2022-11-06T03:11:05;10.80;99.90
48686;DHT22;34485;51.536;3.816;2022-11-06T03:13:55;10.90;99.90
48686;DHT22;34485;51.536;3.816;2022-11-06T03:16:55;10.90;99.90
48686;DHT22;34485;51.536;3.816;2022-11-06T03:22:12;10.90;99.90
48686;DHT22;34485;51.536;3.816;2022-11-06T03:24:41;10.90;99.90
48686;DHT22;34485;51.536;3.816;2022-11-06T03:27:13;10.90;99.90
48686;DHT22;34485;51.536;3.816;2022-11-06T03:29:44;10.90;99.90
48686;DHT22;34485;51.536;3.816;2022-11-06T03:32:14;10.90;99.90
48686;DHT22;34485;51.536;3.816;2022-11-06T03:34:52;10.90;99.90
48686;DHT22;34485;51.536;3.816;2022-11-06T03:37:29;10.90;99.90
48686;DHT22;34485;51.536;3.816;2022-11-06T03:40:00;11.00;99.90
48686;DHT22;34485;51.536;3.816;2022-11-06T03:42:28;10.90;99.90
48686;DHT22;34485;51.536;3.816;2022-11-06T03:45:01;11.00;99.90
48686;DHT22;34485;51.536;3.816;2022-11-06T03:47:39;10.90;99.90
48686;DHT22;34485;51.536;3.816;2022-11-06T03:53:03;10.90;99.90
48686;DHT22;34485;51.536;3.816;2022-11-06T03:55:35;10.90;99.90
48686;DHT22;34485;51.536;3.816;2022-11-06T03:58:07;10.90;99.90
48686;DHT22;34485;51.536;3.816;2022-11-06T04:00:35;10.90;99.90
48686;DHT22;34485;51.536;3.816;2022-11-06T04:03:10;10.90;99.90
48686;DHT22;34485;51.536;3.816;2022-11-06T04:05:42;10.90;99.90
48686;DHT22;34485;51.536;3.816;2022-11-06T04:08:09;10.90;99.90
48686;DHT22;34485;51.536;3.816;2022-11-06T04:10:56;10.90;99.90
48686;DHT22;34485;51.536;3.816;2022-11-06T04:13:45;10.80;99.90
48686;DHT22;34485;51.536;3.816;2022-11-06T04:16:32;10.80;99.90
48686;DHT22;34485;51.536;3.816;2022-11-06T04:18:58;10.70;99.90
48686;DHT22;34485;51.536;3.816;2022-11-06T04:21:53;10.70;99.90
48686;DHT22;34485;51.536;3.816;2022-11-06T04:35:12;10.70;99.90
48686;DHT22;34485;51.536;3.816;2022-11-06T04:43:06;10.70;99.90
48686;DHT22;34485;51.536;3.816;2022-11-06T04:45:40;10.70;99.90
48686;DHT22;34485;51.536;3.816;2022-11-06T04:48:08;10.60;99.90
48686;DHT22;34485;51.536;3.816;2022-11-06T04:50:45;10.70;99.90
48686;DHT22;34485;51.536;3.816;2022-11-06T04:53:13;10.70;99.90
48686;DHT22;34485;51.536;3.816;2022-11-06T04:55:47;10.70;99.90
48686;DHT22;34485;51.536;3.816;2022-11-06T04:58:14;10.60;99.90
48686;DHT22;34485;51.536;3.816;2022-11-06T05:00:47;10.60;99.90
48686;DHT22;34485;51.536;3.816;2022-11-06T05:03:13;10.60;99.90
48686;DHT22;34485;51.536;3.816;2022-11-06T05:05:39;10.60;99.90
48686;DHT22;34485;51.536;3.816;2022-11-06T05:08:05;10.60;99.90
48686;DHT22;34485;51.536;3.816;2022-11-06T05:10:31;10.60;99.90
48686;DHT22;34485;51.536;3.816;2022-11-06T05:12:57;10.60;99.90
48686;DHT22;34485;51.536;3.816;2022-11-06T05:15:22;10.60;99.90
48686;DHT22;34485;51.536;3.816;2022-11-06T05:17:48;10.60;99.90
48686;DHT22;34485;51.536;3.816;2022-11-06T05:20:14;10.60;99.90
48686;DHT22;34485;51.536;3.816;2022-11-06T05:22:40;10.60;99.90
48686;DHT22;34485;51.536;3.816;2022-11-06T05:25:33;10.60;99.90
48686;DHT22;34485;51.536;3.816;2022-11-06T05:28:00;10.60;99.90
48686;DHT22;34485;51.536;3.816;2022-11-06T05:30:26;10.60;99.90
48686;DHT22;34485;51.536;3.816;2022-11-06T05:32:52;10.60;99.90
48686;DHT22;34485;51.536;3.816;2022-11-06T05:35:19;10.60;99.90
48686;DHT22;34485;51.536;3.816;2022-11-06T05:37:46;10.60;99.90
48686;DHT22;34485;51.536;3.816;2022-11-06T05:40:12;10.70;99.90
48686;DHT22;34485;51.536;3.816;2022-11-06T05:42:42;10.70;99.90
48686;DHT22;34485;51.536;3.816;2022-11-06T05:45:09;10.70;99.90
48686;DHT22;34485;51.536;3.816;2022-11-06T05:47:35;10.70;99.90
48686;DHT22;34485;51.536;3.816;2022-11-06T05:50:00;10.80;99.90
48686;DHT22;34485;51.536;3.816;2022-11-06T05:52:26;10.80;99.90
48686;DHT22;34485;51.536;3.816;2022-11-06T05:54:52;10.80;99.90
48686;DHT22;34485;51.536;3.816;2022-11-06T05:57:17;10.80;99.90
48686;DHT22;34485;51.536;3.816;2022-11-06T05:59:43;10.90;99.90
48686;DHT22;34485;51.536;3.816;2022-11-06T06:02:09;10.90;99.90
48686;DHT22;34485;51.536;3.816;2022-11-06T06:04:35;10.90;99.90
48686;DHT22;34485;51.536;3.816;2022-11-06T06:07:00;10.90;99.90
48686;DHT22;34485;51.536;3.816;2022-11-06T06:09:26;10.90;99.90
48686;DHT22;34485;51.536;3.816;2022-11-06T06:11:52;11.00;99.90
48686;DHT22;34485;51.536;3.816;2022-11-06T06:14:18;11.00;99.90
48686;DHT22;34485;51.536;3.816;2022-11-06T06:16:44;11.00;99.90
48686;DHT22;34485;51.536;3.816;2022-11-06T06:19:10;11.00;99.90
48686;DHT22;34485;51.536;3.816;2022-11-06T06:21:35;11.00;99.90
48686;DHT22;34485;51.536;3.816;2022-11-06T06:24:02;11.10;99.90
48686;DHT22;34485;51.536;3.816;2022-11-06T06:33:46;11.20;99.90
48686;DHT22;34485;51.536;3.816;2022-11-06T06:36:12;11.00;99.90
48686;DHT22;34485;51.536;3.816;2022-11-06T06:38:37;11.00;99.90
48686;DHT22;34485;51.536;3.816;2022-11-06T06:41:04;11.00;99.90
48686;DHT22;34485;51.536;3.816;2022-11-06T06:43:31;11.00;99.90
48686;DHT22;34485;51.536;3.816;2022-11-06T06:45:58;11.00;99.90
48686;DHT22;34485;51.536;3.816;2022-11-06T06:48:24;10.90;99.90
48686;DHT22;34485;51.536;3.816;2022-11-06T06:50:50;11.00;99.90
48686;DHT22;34485;51.536;3.816;2022-11-06T06:53:15;10.90;99.90
48686;DHT22;34485;51.536;3.816;2022-11-06T06:55:41;10.90;99.90
48686;DHT22;34485;51.536;3.816;2022-11-06T06:58:06;10.90;99.90
48686;DHT22;34485;51.536;3.816;2022-11-06T07:00:32;10.90;99.90
48686;DHT22;34485;51.536;3.816;2022-11-06T07:02:58;11.00;99.90
48686;DHT22;34485;51.536;3.816;2022-11-06T07:05:23;11.00;99.90
48686;DHT22;34485;51.536;3.816;2022-11-06T07:07:49;11.00;99.90
48686;DHT22;34485;51.536;3.816;2022-11-06T07:10:15;11.00;99.90
48686;DHT22;34485;51.536;3.816;2022-11-06T07:12:40;11.10;99.90
48686;DHT22;34485;51.536;3.816;2022-11-06T07:15:06;11.10;99.90
48686;DHT22;34485;51.536;3.816;2022-11-06T07:17:32;11.10;99.90
48686;DHT22;34485;51.536;3.816;2022-11-06T07:19:58;11.20;99.90
48686;DHT22;34485;51.536;3.816;2022-11-06T07:22:27;11.20;99.90
48686;DHT22;34485;51.536;3.816;2022-11-06T07:24:53;11.30;99.90
48686;DHT22;34485;51.536;3.816;2022-11-06T07:27:18;11.30;99.90
48686;DHT22;34485;51.536;3.816;2022-11-06T07:29:44;11.40;99.90
48686;DHT22;34485;51.536;3.816;2022-11-06T07:32:09;11.40;99.90
48686;DHT22;34485;51.536;3.816;2022-11-06T07:34:35;11.40;99.90
48686;DHT22;34485;51.536;3.816;2022-11-06T07:37:04;11.40;99.90
48686;DHT22;34485;51.536;3.816;2022-11-06T07:39:30;11.50;99.90
48686;DHT22;34485;51.536;3.816;2022-11-06T07:41:55;11.50;99.90
48686;DHT22;34485;51.536;3.816;2022-11-06T07:44:21;11.60;99.90
48686;DHT22;34485;51.536;3.816;2022-11-06T07:46:47;11.60;99.90
48686;DHT22;34485;51.536;3.816;2022-11-06T07:49:12;11.60;99.90
48686;DHT22;34485;51.536;3.816;2022-11-06T07:51:41;11.60;99.90
48686;DHT22;34485;51.536;3.816;2022-11-06T07:54:06;11.60;99.90
48686;DHT22;34485;51.536;3.816;2022-11-06T07:56:32;11.60;99.90
48686;DHT22;34485;51.536;3.816;2022-11-06T07:58:58;11.60;99.90
48686;DHT22;34485;51.536;3.816;2022-11-06T08:01:24;11.70;99.90
48686;DHT22;34485;51.536;3.816;2022-11-06T08:03:49;11.70;99.90
48686;DHT22;34485;51.536;3.816;2022-11-06T08:06:15;11.70;99.90
48686;DHT22;34485;51.536;3.816;2022-11-06T08:08:41;11.70;99.90
48686;DHT22;34485;51.536;3.816;2022-11-06T08:11:09;11.80;99.90
48686;DHT22;34485;51.536;3.816;2022-11-06T08:13:35;11.80;99.90
48686;DHT22;34485;51.536;3.816;2022-11-06T08:16:10;11.80;99.90
48686;DHT22;34485;51.536;3.816;2022-11-06T08:18:36;11.90;99.90
48686;DHT22;34485;51.536;3.816;2022-11-06T08:21:02;11.90;99.90
48686;DHT22;34485;51.536;3.816;2022-11-06T08:23:28;12.00;99.90
48686;DHT22;34485;51.536;3.816;2022-11-06T08:25:55;12.00;99.90
48686;DHT22;34485;51.536;3.816;2022-11-06T08:28:22;12.00;99.90
48686;DHT22;34485;51.536;3.816;2022-11-06T08:30:48;12.00;99.90
48686;DHT22;34485;51.536;3.816;2022-11-06T08:33:13;12.10;99.90
48686;DHT22;34485;51.536;3.816;2022-11-06T08:35:39;12.00;99.90
48686;DHT22;34485;51.536;3.816;2022-11-06T08:38:04;12.10;99.90
48686;DHT22;34485;51.536;3.816;2022-11-06T08:40:30;12.00;99.90
48686;DHT22;34485;51.536;3.816;2022-11-06T08:43:00;11.90;99.90
48686;DHT22;34485;51.536;3.816;2022-11-06T08:47:52;11.70;99.90
48686;DHT22;34485;51.536;3.816;2022-11-06T08:50:18;11.70;99.90
48686;DHT22;34485;51.536;3.816;2022-11-06T08:52:44;11.60;99.90
48686;DHT22;34485;51.536;3.816;2022-11-06T08:55:09;11.60;99.90
48686;DHT22;34485;51.536;3.816;2022-11-06T08:57:35;11.60;99.90
48686;DHT22;34485;51.536;3.816;2022-11-06T09:00:00;11.70;99.90
48686;DHT22;34485;51.536;3.816;2022-11-06T09:02:26;11.80;99.90
48686;DHT22;34485;51.536;3.816;2022-11-06T09:04:51;11.80;99.90
48686;DHT22;34485;51.536;3.816;2022-11-06T09:07:17;11.80;99.90
48686;DHT22;34485;51.536;3.816;2022-11-06T09:09:42;11.90;99.90
48686;DHT22;34485;51.536;3.816;2022-11-06T09:12:08;12.00;99.90
48686;DHT22;34485;51.536;3.816;2022-11-06T09:14:34;12.00;99.90
48686;DHT22;34485;51.536;3.816;2022-11-06T09:17:01;12.00;99.90
48686;DHT22;34485;51.536;3.816;2022-11-06T09:19:26;12.10;99.90
48686;DHT22;34485;51.536;3.816;2022-11-06T09:21:52;12.10;99.90
48686;DHT22;34485;51.536;3.816;2022-11-06T09:24:17;12.10;99.90
48686;DHT22;34485;51.536;3.816;2022-11-06T09:26:43;12.10;99.90
48686;DHT22;34485;51.536;3.816;2022-11-06T09:29:09;12.10;99.90
48686;DHT22;34485;51.536;3.816;2022-11-06T09:31:34;12.10;99.90
48686;DHT22;34485;51.536;3.816;2022-11-06T09:34:00;12.20;99.90
48686;DHT22;34485;51.536;3.816;2022-11-06T09:36:25;12.20;99.90
48686;DHT22;34485;51.536;3.816;2022-11-06T09:38:51;12.10;99.90
48686;DHT22;34485;51.536;3.816;2022-11-06T09:41:38;12.10;99.90
48686;DHT22;34485;51.536;3.816;2022-11-06T09:44:29;12.10;99.90
48686;DHT22;34485;51.536;3.816;2022-11-06T09:46:59;12.10;99.90
48686;DHT22;34485;51.536;3.816;2022-11-06T09:49:32;12.10;99.90
48686;DHT22;34485;51.536;3.816;2022-11-06T09:52:04;12.10;99.90
48686;DHT22;34485;51.536;3.816;2022-11-06T09:54:49;12.10;99.90
48686;DHT22;34485;51.536;3.816;2022-11-06T09:57:27;12.10;99.90
48686;DHT22;34485;51.536;3.816;2022-11-06T09:59:54;12.10;99.90
48686;DHT22;34485;51.536;3.816;2022-11-06T10:02:41;12.10;99.90
48686;DHT22;34485;51.536;3.816;2022-11-06T10:07:54;12.00;99.90
48686;DHT22;34485;51.536;3.816;2022-11-06T10:10:25;12.00;99.90
48686;DHT22;34485;51.536;3.816;2022-11-06T10:18:33;11.90;99.90
48686;DHT22;34485;51.536;3.816;2022-11-06T10:26:17;11.70;99.90
48686;DHT22;34485;51.536;3.816;2022-11-06T10:34:36;11.60;99.90
48686;DHT22;34485;51.536;3.816;2022-11-06T10:37:10;11.50;99.90
48686;DHT22;34485;51.536;3.816;2022-11-06T10:39:38;11.50;99.90
48686;DHT22;34485;51.536;3.816;2022-11-06T10:42:17;11.50;99.90
48686;DHT22;34485;51.536;3.816;2022-11-06T10:47:22;11.40;99.90
48686;DHT22;34485;51.536;3.816;2022-11-06T10:49:51;11.30;99.90
48686;DHT22;34485;51.536;3.816;2022-11-06T10:52:24;11.30;99.90
48686;DHT22;34485;51.536;3.816;2022-11-06T10:58:01;11.30;99.90
48686;DHT22;34485;51.536;3.816;2022-11-06T11:00:28;11.20;99.90
48686;DHT22;34485;51.536;3.816;2022-11-06T11:02:56;11.20;99.90
48686;DHT22;34485;51.536;3.816;2022-11-06T11:05:25;11.20;99.90
48686;DHT22;34485;51.536;3.816;2022-11-06T11:07:51;11.10;99.90
48686;DHT22;34485;51.536;3.816;2022-11-06T11:12:53;11.20;99.90
48686;DHT22;34485;51.536;3.816;2022-11-06T11:15:20;11.20;99.90
48686;DHT22;34485;51.536;3.816;2022-11-06T11:18:14;11.20;99.90
48686;DHT22;34485;51.536;3.816;2022-11-06T11:20:51;11.20;99.90
48686;DHT22;34485;51.536;3.816;2022-11-06T11:23:27;11.20;99.90
48686;DHT22;34485;51.536;3.816;2022-11-06T11:25:54;11.30;99.90
48686;DHT22;34485;51.536;3.816;2022-11-06T11:28:33;11.30;99.90
48686;DHT22;34485;51.536;3.816;2022-11-06T11:31:14;11.30;99.90
48686;DHT22;34485;51.536;3.816;2022-11-06T11:33:46;11.40;99.90
48686;DHT22;34485;51.536;3.816;2022-11-06T11:36:14;11.50;99.90
48686;DHT22;34485;51.536;3.816;2022-11-06T11:38:40;11.60;99.90
48686;DHT22;34485;51.536;3.816;2022-11-06T11:43:36;11.70;99.90
48686;DHT22;34485;51.536;3.816;2022-11-06T11:48:40;11.80;99.90
48686;DHT22;34485;51.536;3.816;2022-11-06T11:53:41;11.90;99.90
48686;DHT22;34485;51.536;3.816;2022-11-06T11:56:16;11.90;99.90
48686;DHT22;34485;51.536;3.816;2022-11-06T11:58:51;11.90;99.90
48686;DHT22;34485;51.536;3.816;2022-11-06T12:01:18;11.80;99.90
48686;DHT22;34485;51.536;3.816;2022-11-06T12:03:54;11.80;99.90
48686;DHT22;34485;51.536;3.816;2022-11-06T12:06:20;11.80;99.90
48686;DHT22;34485;51.536;3.816;2022-11-06T12:08:51;11.70;99.90
48686;DHT22;34485;51.536;3.816;2022-11-06T12:11:27;11.70;99.90
48686;DHT22;34485;51.536;3.816;2022-11-06T12:14:16;11.70;99.90
48686;DHT22;34485;51.536;3.816;2022-11-06T12:16:45;11.60;99.90
48686;DHT22;34485;51.536;3.816;2022-11-06T12:19:13;11.60;99.90
48686;DHT22;34485;51.536;3.816;2022-11-06T12:21:40;11.50;99.90
48686;DHT22;34485;51.536;3.816;2022-11-06T12:24:17;11.50;99.90
48686;DHT22;34485;51.536;3.816;2022-11-06T12:26:58;11.40;99.90
48686;DHT22;34485;51.536;3.816;2022-11-06T12:32:27;11.30;99.90
48686;DHT22;34485;51.536;3.816;2022-11-06T12:40:37;11.20;99.90
48686;DHT22;34485;51.536;3.816;2022-11-06T12:43:27;11.10;99.90
48686;DHT22;34485;51.536;3.816;2022-11-06T13:11:11;10.80;99.90
48686;DHT22;34485;51.536;3.816;2022-11-06T13:24:24;10.50;99.90
48686;DHT22;34485;51.536;3.816;2022-11-06T13:27:09;10.40;99.90
48686;DHT22;34485;51.536;3.816;2022-11-06T13:29:37;10.30;99.90
48686;DHT22;34485;51.536;3.816;2022-11-06T13:32:09;10.30;99.90
48686;DHT22;34485;51.536;3.816;2022-11-06T13:34:38;10.20;99.90
48686;DHT22;34485;51.536;3.816;2022-11-06T13:37:14;10.10;99.90
48686;DHT22;34485;51.536;3.816;2022-11-06T13:39:45;10.10;99.90
48686;DHT22;34485;51.536;3.816;2022-11-06T13:42:22;10.00;99.90
48686;DHT22;34485;51.536;3.816;2022-11-06T13:44:51;10.00;99.90
48686;DHT22;34485;51.536;3.816;2022-11-06T13:47:28;9.90;99.90
48686;DHT22;34485;51.536;3.816;2022-11-06T13:50:11;9.90;99.90
48686;DHT22;34485;51.536;3.816;2022-11-06T13:52:48;9.90;99.90
48686;DHT22;34485;51.536;3.816;2022-11-06T14:01:05;9.80;99.90
48686;DHT22;34485;51.536;3.816;2022-11-06T14:03:48;9.70;99.90
48686;DHT22;34485;51.536;3.816;2022-11-06T14:06:29;9.70;99.90
48686;DHT22;34485;51.536;3.816;2022-11-06T14:08:58;9.70;99.90
48686;DHT22;34485;51.536;3.816;2022-11-06T14:11:28;9.70;99.90
48686;DHT22;34485;51.536;3.816;2022-11-06T14:14:03;9.60;99.90
48686;DHT22;34485;51.536;3.816;2022-11-06T14:16:31;9.60;99.90
48686;DHT22;34485;51.536;3.816;2022-11-06T14:21:53;9.60;99.90
48686;DHT22;34485;51.536;3.816;2022-11-06T14:24:34;9.60;99.90
48686;DHT22;34485;51.536;3.816;2022-11-06T14:27:02;9.60;99.90
48686;DHT22;34485;51.536;3.816;2022-11-06T14:31:58;9.60;99.90
48686;DHT22;34485;51.536;3.816;2022-11-06T14:34:26;9.60;99.90
48686;DHT22;34485;51.536;3.816;2022-11-06T14:36:52;9.60;99.90
48686;DHT22;34485;51.536;3.816;2022-11-06T14:42:38;9.60;99.90
48686;DHT22;34485;51.536;3.816;2022-11-06T14:45:17;9.60;99.90
48686;DHT22;34485;51.536;3.816;2022-11-06T14:47:53;9.50;99.90
48686;DHT22;34485;51.536;3.816;2022-11-06T14:50:34;9.50;99.90
48686;DHT22;34485;51.536;3.816;2022-11-06T14:53:03;9.50;99.90
48686;DHT22;34485;51.536;3.816;2022-11-06T14:55:45;9.50;99.90
48686;DHT22;34485;51.536;3.816;2022-11-06T14:58:30;9.50;99.90
48686;DHT22;34485;51.536;3.816;2022-11-06T15:03:49;9.50;99.90
48686;DHT22;34485;51.536;3.816;2022-11-06T15:19:37;9.50;99.90
48686;DHT22;34485;51.536;3.816;2022-11-06T15:22:18;9.50;99.90
48686;DHT22;34485;51.536;3.816;2022-11-06T15:25:11;9.50;99.90
48686;DHT22;34485;51.536;3.816;2022-11-06T15:30:44;9.50;99.90
48686;DHT22;34485;51.536;3.816;2022-11-06T15:33:16;9.50;99.90
48686;DHT22;34485;51.536;3.816;2022-11-06T15:35:45;9.50;99.90
48686;DHT22;34485;51.536;3.816;2022-11-06T15:38:18;9.50;99.90
48686;DHT22;34485;51.536;3.816;2022-11-06T15:40:46;9.50;99.90
48686;DHT22;34485;51.536;3.816;2022-11-06T15:48:27;9.40;99.90
48686;DHT22;34485;51.536;3.816;2022-11-06T15:50:53;9.50;99.90
48686;DHT22;34485;51.536;3.816;2022-11-06T15:53:21;9.40;99.90
48686;DHT22;34485;51.536;3.816;2022-11-06T15:56:13;9.40;99.90
48686;DHT22;34485;51.536;3.816;2022-11-06T15:58:40;9.40;99.90
48686;DHT22;34485;51.536;3.816;2022-11-06T16:01:06;9.40;99.90
48686;DHT22;34485;51.536;3.816;2022-11-06T16:03:52;9.50;99.90
48686;DHT22;34485;51.536;3.816;2022-11-06T16:06:19;9.50;99.90
48686;DHT22;34485;51.536;3.816;2022-11-06T16:08:45;9.50;99.90
48686;DHT22;34485;51.536;3.816;2022-11-06T16:11:15;9.50;99.90
48686;DHT22;34485;51.536;3.816;2022-11-06T16:13:42;9.50;99.90
48686;DHT22;34485;51.536;3.816;2022-11-06T16:18:57;9.50;99.90
48686;DHT22;34485;51.536;3.816;2022-11-06T16:21:26;9.50;99.90
48686;DHT22;34485;51.536;3.816;2022-11-06T16:23:59;9.50;99.90
48686;DHT22;34485;51.536;3.816;2022-11-06T16:28:56;9.60;99.90
48686;DHT22;34485;51.536;3.816;2022-11-06T16:31:24;9.60;99.90
48686;DHT22;34485;51.536;3.816;2022-11-06T16:33:56;9.60;99.90
48686;DHT22;34485;51.536;3.816;2022-11-06T16:36:23;9.60;99.90
48686;DHT22;34485;51.536;3.816;2022-11-06T16:38:48;9.60;99.90
48686;DHT22;34485;51.536;3.816;2022-11-06T16:41:16;9.60;99.90
48686;DHT22;34485;51.536;3.816;2022-11-06T16:44:17;9.60;99.90
48686;DHT22;34485;51.536;3.816;2022-11-06T16:49:47;9.70;99.90
48686;DHT22;34485;51.536;3.816;2022-11-06T16:54:58;9.60;99.90
48686;DHT22;34485;51.536;3.816;2022-11-06T16:57:35;9.70;99.90
48686;DHT22;34485;51.536;3.816;2022-11-06T17:03:06;9.70;99.90
48686;DHT22;34485;51.536;3.816;2022-11-06T17:05:33;9.70;99.90
48686;DHT22;34485;51.536;3.816;2022-11-06T17:08:05;9.80;99.90
48686;DHT22;34485;51.536;3.816;2022-11-06T17:10:37;9.80;99.90
48686;DHT22;34485;51.536;3.816;2022-11-06T17:13:18;9.80;99.90
48686;DHT22;34485;51.536;3.816;2022-11-06T17:16:05;9.80;99.90
48686;DHT22;34485;51.536;3.816;2022-11-06T17:18:34;9.80;99.90
48686;DHT22;34485;51.536;3.816;2022-11-06T17:23:28;9.80;99.90
48686;DHT22;34485;51.536;3.816;2022-11-06T17:26:04;9.80;99.90
48686;DHT22;34485;51.536;3.816;2022-11-06T17:30:56;10.00;99.90
48686;DHT22;34485;51.536;3.816;2022-11-06T17:33:22;10.00;99.90
48686;DHT22;34485;51.536;3.816;2022-11-06T17:35:48;10.00;99.90
48686;DHT22;34485;51.536;3.816;2022-11-06T17:38:14;10.00;99.90
48686;DHT22;34485;51.536;3.816;2022-11-06T17:40:41;10.00;99.90
48686;DHT22;34485;51.536;3.816;2022-11-06T17:43:07;10.00;99.90
48686;DHT22;34485;51.536;3.816;2022-11-06T17:45:34;10.00;99.90
48686;DHT22;34485;51.536;3.816;2022-11-06T17:47:59;10.00;99.90
48686;DHT22;34485;51.536;3.816;2022-11-06T17:50:25;10.00;99.90
48686;DHT22;34485;51.536;3.816;2022-11-06T17:52:51;10.00;99.90
48686;DHT22;34485;51.536;3.816;2022-11-06T17:55:17;10.00;99.90
48686;DHT22;34485;51.536;3.816;2022-11-06T17:57:42;10.00;99.90
48686;DHT22;34485;51.536;3.816;2022-11-06T18:00:08;10.00;99.90
48686;DHT22;34485;51.536;3.816;2022-11-06T18:02:35;10.00;99.90
48686;DHT22;34485;51.536;3.816;2022-11-06T18:05:00;10.00;99.90
48686;DHT22;34485;51.536;3.816;2022-11-06T18:07:26;10.00;99.90
48686;DHT22;34485;51.536;3.816;2022-11-06T18:09:52;10.00;99.90
48686;DHT22;34485;51.536;3.816;2022-11-06T18:12:17;10.00;99.90
48686;DHT22;34485;51.536;3.816;2022-11-06T18:14:45;10.00;99.90
48686;DHT22;34485;51.536;3.816;2022-11-06T18:17:11;9.90;99.90
48686;DHT22;34485;51.536;3.816;2022-11-06T18:19:37;9.90;99.90
48686;DHT22;34485;51.536;3.816;2022-11-06T18:22:03;9.90;99.90
48686;DHT22;34485;51.536;3.816;2022-11-06T18:24:29;9.90;99.90
48686;DHT22;34485;51.536;3.816;2022-11-06T18:26:54;10.00;99.90
48686;DHT22;34485;51.536;3.816;2022-11-06T18:29:20;10.00;99.90
48686;DHT22;34485;51.536;3.816;2022-11-06T18:31:46;10.00;99.90
48686;DHT22;34485;51.536;3.816;2022-11-06T18:34:14;10.00;99.90
48686;DHT22;34485;51.536;3.816;2022-11-06T18:36:40;10.10;99.90
48686;DHT22;34485;51.536;3.816;2022-11-06T18:39:06;10.10;99.90
48686;DHT22;34485;51.536;3.816;2022-11-06T18:41:32;10.10;99.90
48686;DHT22;34485;51.536;3.816;2022-11-06T18:43:59;10.10;99.90
48686;DHT22;34485;51.536;3.816;2022-11-06T18:46:25;10.10;99.90
48686;DHT22;34485;51.536;3.816;2022-11-06T18:48:52;10.10;99.90
48686;DHT22;34485;51.536;3.816;2022-11-06T18:51:20;10.20;99.90
48686;DHT22;34485;51.536;3.816;2022-11-06T18:53:46;10.20;99.90